Huvudsida
METAR-TAF:

METAR-TAF

Flygplatser :

Arlanda

Stockholm-Arlanda, Sverige

latitud: 59-39N, longitud: 017-57E, höjd: 38 m

Aktuellt väderrapport

Denna rapport gjordes för 13 minuter sedan, klockan 03:20 UTC
Vind 3 kt från syd/sydost
Temperatur 10°C
Fuktighet 66%
Tryck 1029 hPa
Sikt 10 km eller mer
Inga moln under 1 500 m eller inga cumulonimbus

METAR: ESSA 250320Z 15003KT CAVOK 10/04 Q1029 NOSIG

Tid: 05:33 (03:33 UTC)

Väderprognos

Denna rapport gjordes för 4 timmar och 3 minuter sedan, klockan 23:30 UTC
Prognos gäller från 25 kl. 00 UTC till 25 kl. 24 UTC
Vind 6 kt från syd
Sikt 10 km eller mer
Inga moln under 1 500 m eller inga cumulonimbus

TAF: ESSA 242330Z 2500/2524 17006KT CAVOK

Aktuella väderrapporter och prognoser från 4000 flygplatser (METAR- och TAF-rapporter).

De tillgängliga stationerna syns som gula och röda prickar på kartan.

För musen över prickarna för att se namnen på stationerna.

Klicka sedan för att få väderrapporter och prognoser.

För att ändra kartan: Klicka på de gröna knapparna med ett svart kors på för att zooma in; den gröna knappen med ett streck på för att zooma ut; eller på de gröna pilarna för angränsande kartor.


METAR-TAF: